createdAt,value
2023-02-11T00:00:19.113Z,27.48
2023-02-11T00:01:26.664Z,27.52
2023-02-11T00:02:32.171Z,27.50
2023-02-11T00:03:36.257Z,27.58
2023-02-11T00:04:39.902Z,27.58
2023-02-11T00:05:43.607Z,27.54
2023-02-11T00:06:48.845Z,27.50
2023-02-11T00:07:52.555Z,27.62
2023-02-11T00:08:56.720Z,27.63
2023-02-11T00:10:00.425Z,27.58
2023-02-11T00:11:04.849Z,27.57
2023-02-11T00:12:08.624Z,27.61
2023-02-11T00:13:12.289Z,27.62
2023-02-11T00:14:16.004Z,27.53
2023-02-11T00:15:19.632Z,27.56
2023-02-11T00:16:23.522Z,27.55
2023-02-11T00:17:27.179Z,27.73
2023-02-11T00:18:30.962Z,27.75
2023-02-11T00:19:34.577Z,27.76
2023-02-11T00:20:40.425Z,27.77
2023-02-11T00:21:44.142Z,27.81
2023-02-11T00:22:49.395Z,27.83
2023-02-11T00:23:53.635Z,27.87
2023-02-11T00:24:57.215Z,27.90
2023-02-11T00:26:00.861Z,27.91
2023-02-11T00:27:04.548Z,27.93
2023-02-11T00:28:08.547Z,27.87
2023-02-11T00:29:12.217Z,28.03
2023-02-11T00:30:15.867Z,27.96
2023-02-11T00:31:21.165Z,27.74
2023-02-11T00:32:24.948Z,27.92
2023-02-11T00:33:28.664Z,27.96
2023-02-11T00:34:32.255Z,27.83
2023-02-11T00:35:38.380Z,27.95
2023-02-11T00:36:42.235Z,27.85
2023-02-11T00:37:45.867Z,28.04
2023-02-11T00:38:52.626Z,27.96
2023-02-11T00:39:56.310Z,27.94
2023-02-11T00:41:00.137Z,27.97
2023-02-11T00:42:03.884Z,27.84
2023-02-11T00:43:07.634Z,28.05
2023-02-11T00:44:11.261Z,28.12
2023-02-11T00:45:14.898Z,28.17
2023-02-11T00:46:18.973Z,28.14
2023-02-11T00:47:22.835Z,27.87
2023-02-11T00:48:26.478Z,27.92
2023-02-11T00:49:30.111Z,27.87
2023-02-11T00:50:33.773Z,28.06
2023-02-11T00:51:37.457Z,28.07
2023-02-11T00:52:41.123Z,27.99
2023-02-11T00:53:44.746Z,27.88
2023-02-11T00:54:50.084Z,28.10
2023-02-11T00:55:53.783Z,28.19
2023-02-11T00:56:57.470Z,28.29
2023-02-11T00:58:04.165Z,28.32
2023-02-11T00:59:07.848Z,28.34
2023-02-11T01:00:15.916Z,28.38
2023-02-11T01:01:21.288Z,28.39
2023-02-11T01:02:24.965Z,28.31
2023-02-11T01:03:28.933Z,28.33
2023-02-11T01:04:32.601Z,28.41
2023-02-11T01:05:36.459Z,28.49
2023-02-11T01:06:40.103Z,28.58
2023-02-11T01:07:43.743Z,28.62
2023-02-11T01:08:47.340Z,28.69
2023-02-11T01:09:53.090Z,28.66
2023-02-11T01:10:58.473Z,28.81
2023-02-11T01:12:02.137Z,28.83
2023-02-11T01:13:06.260Z,28.78
2023-02-11T01:14:09.997Z,28.88
2023-02-11T01:15:15.530Z,28.80
2023-02-11T01:16:20.161Z,28.67
2023-02-11T01:17:23.917Z,28.96
2023-02-11T01:18:28.446Z,28.84
2023-02-11T01:19:32.106Z,28.98
2023-02-11T01:20:35.837Z,28.99
2023-02-11T01:21:39.503Z,28.79
2023-02-11T01:22:43.217Z,28.86
2023-02-11T01:23:47.598Z,29.12
2023-02-11T01:24:55.302Z,29.12
2023-02-11T01:25:58.956Z,29.18
2023-02-11T01:27:02.648Z,29.24
2023-02-11T01:28:06.484Z,29.26
2023-02-11T01:29:10.221Z,29.30
2023-02-11T01:30:15.715Z,29.37
2023-02-11T01:31:19.609Z,29.34
2023-02-11T01:32:23.188Z,29.51
2023-02-11T01:33:26.810Z,29.47
2023-02-11T01:34:30.498Z,29.39
2023-02-11T01:35:34.490Z,29.47
2023-02-11T01:36:38.130Z,29.42
2023-02-11T01:37:41.770Z,29.61
2023-02-11T01:38:45.381Z,29.62
2023-02-11T01:39:49.104Z,29.70
2023-02-11T01:40:56.254Z,29.71
2023-02-11T01:41:59.932Z,29.68
2023-02-11T01:43:03.516Z,29.63
2023-02-11T01:44:32.329Z,29.48
2023-02-11T01:45:59.410Z,29.47
2023-02-11T01:47:03.651Z,29.58
2023-02-11T01:48:07.900Z,29.50
2023-02-11T01:49:15.863Z,29.44
2023-02-11T01:50:19.653Z,29.72
2023-02-11T01:51:26.921Z,29.81
2023-02-11T01:52:35.415Z,29.92
2023-02-11T01:53:40.757Z,29.92
2023-02-11T01:54:50.292Z,29.84
2023-02-11T01:55:56.752Z,29.91
2023-02-11T01:57:01.888Z,29.95
2023-02-11T01:58:07.261Z,29.81
2023-02-11T01:59:18.187Z,30.06
2023-02-11T02:00:25.355Z,30.08
2023-02-11T02:01:33.068Z,30.26
2023-02-11T02:02:42.625Z,30.35
2023-02-11T02:03:50.165Z,30.24
2023-02-11T02:04:57.499Z,30.17
2023-02-11T02:06:07.288Z,30.10
2023-02-11T02:07:17.206Z,29.79
2023-02-11T02:08:26.296Z,29.62
2023-02-11T02:09:35.375Z,29.79
2023-02-11T02:10:42.592Z,29.84
2023-02-11T02:11:48.288Z,29.83
2023-02-11T02:12:51.955Z,29.82
2023-02-11T02:13:55.665Z,29.81
2023-02-11T02:15:20.887Z,30.00
2023-02-11T02:16:31.362Z,30.01
2023-02-11T02:17:45.023Z,29.94
2023-02-11T02:18:57.146Z,29.83
2023-02-11T02:20:14.612Z,29.90
2023-02-11T02:22:02.154Z,29.93
2023-02-11T02:23:47.846Z,29.79
2023-02-11T02:25:00.439Z,29.75
2023-02-11T02:26:32.596Z,29.69
2023-02-11T02:27:46.829Z,29.92
2023-02-11T02:29:34.552Z,30.07
2023-02-11T02:31:12.726Z,29.92
2023-02-11T02:32:40.321Z,30.16
2023-02-11T02:33:50.857Z,29.93
2023-02-11T02:35:03.171Z,29.90
2023-02-11T02:36:17.960Z,30.07
2023-02-11T02:37:28.372Z,29.88
2023-02-11T02:38:37.076Z,29.84
2023-02-11T02:39:41.017Z,29.98
2023-02-11T02:40:49.548Z,30.03
2023-02-11T02:41:54.331Z,30.11
2023-02-11T02:42:59.803Z,30.21
2023-02-11T02:44:04.132Z,30.13
2023-02-11T02:45:09.997Z,29.98
2023-02-11T02:46:16.623Z,30.00
2023-02-11T02:47:20.548Z,29.96
2023-02-11T02:48:31.435Z,30.30
2023-02-11T02:49:35.023Z,30.38
2023-02-11T02:50:39.134Z,30.46
2023-02-11T02:51:54.573Z,30.51
2023-02-11T02:53:11.796Z,30.72
2023-02-11T02:54:52.132Z,30.82
2023-02-11T02:56:04.734Z,30.90
2023-02-11T02:57:21.019Z,31.07
2023-02-11T02:58:44.823Z,31.22
2023-02-11T03:00:04.074Z,31.10
2023-02-11T03:01:17.734Z,30.63
2023-02-11T03:02:29.970Z,30.49
2023-02-11T03:03:44.064Z,30.60
2023-02-11T03:04:53.546Z,30.60
2023-02-11T03:06:04.302Z,30.67
2023-02-11T03:07:17.703Z,30.85
2023-02-11T03:08:28.008Z,30.94
2023-02-11T03:09:36.168Z,31.05
2023-02-11T03:10:44.338Z,31.00
2023-02-11T03:11:48.126Z,30.92
2023-02-11T03:12:52.573Z,30.88
2023-02-11T03:13:57.599Z,31.07
2023-02-11T03:15:03.340Z,31.08
2023-02-11T03:16:12.927Z,30.82
2023-02-11T03:17:18.213Z,31.14
2023-02-11T03:18:26.848Z,31.19
2023-02-11T03:19:37.239Z,31.23
2023-02-11T03:20:44.217Z,31.27
2023-02-11T03:21:49.479Z,31.29
2023-02-11T03:22:59.141Z,31.38
2023-02-11T03:24:06.899Z,31.26
2023-02-11T03:25:11.207Z,31.49
2023-02-11T03:26:22.362Z,31.40
2023-02-11T03:27:33.417Z,31.34
2023-02-11T03:28:43.938Z,31.47
2023-02-11T03:29:53.008Z,31.40
2023-02-11T03:31:03.524Z,31.48
2023-02-11T03:32:12.715Z,31.60
2023-02-11T03:33:23.534Z,31.72
2023-02-11T03:34:36.952Z,31.65
2023-02-11T03:35:46.073Z,31.63
2023-02-11T03:36:53.051Z,31.56
2023-02-11T03:38:01.453Z,31.57
2023-02-11T03:39:08.162Z,31.66
2023-02-11T03:40:15.710Z,31.58
2023-02-11T03:41:22.492Z,31.53
2023-02-11T03:42:31.006Z,31.57
2023-02-11T03:43:37.955Z,31.70
2023-02-11T03:44:46.459Z,31.77
2023-02-11T03:45:54.575Z,31.57
2023-02-11T03:46:58.822Z,31.57
2023-02-11T03:48:06.338Z,31.57
2023-02-11T03:49:14.256Z,31.52
2023-02-11T03:50:21.509Z,31.53
2023-02-11T03:51:28.062Z,31.58
2023-02-11T03:52:33.070Z,31.56
2023-02-11T03:53:39.453Z,31.67
2023-02-11T03:54:44.452Z,31.73
2023-02-11T03:55:50.964Z,31.69
2023-02-11T03:56:57.452Z,31.89
2023-02-11T03:58:01.568Z,31.90
2023-02-11T03:59:05.296Z,31.76
2023-02-11T04:00:10.653Z,31.68
2023-02-11T04:01:14.460Z,31.77
2023-02-11T04:02:18.221Z,31.71
2023-02-11T04:03:21.875Z,31.63
2023-02-11T04:04:26.299Z,31.55
2023-02-11T04:05:31.655Z,31.54
2023-02-11T04:06:35.314Z,31.59
2023-02-11T04:07:38.910Z,31.70
2023-02-11T04:08:42.520Z,31.80
2023-02-11T04:09:46.228Z,31.83
2023-02-11T04:10:49.949Z,31.88
2023-02-11T04:11:53.592Z,31.85
2023-02-11T04:12:57.406Z,31.81
2023-02-11T04:14:01.092Z,32.00
2023-02-11T04:15:05.019Z,31.93
2023-02-11T04:16:08.955Z,31.83
2023-02-11T04:17:12.920Z,32.00
2023-02-11T04:18:16.542Z,32.00
2023-02-11T04:19:20.172Z,32.08
2023-02-11T04:20:23.856Z,31.98
2023-02-11T04:21:29.181Z,32.10
2023-02-11T04:22:33.029Z,31.89
2023-02-11T04:23:36.675Z,32.04
2023-02-11T04:24:40.695Z,32.04
2023-02-11T04:25:44.570Z,32.07
2023-02-11T04:26:48.349Z,32.11
2023-02-11T04:27:51.983Z,32.16
2023-02-11T04:28:55.561Z,32.06
2023-02-11T04:29:59.182Z,32.10
2023-02-11T04:31:03.027Z,32.11
2023-02-11T04:32:06.797Z,31.97
2023-02-11T04:33:13.796Z,32.08
2023-02-11T04:34:17.589Z,32.02
2023-02-11T04:35:26.649Z,32.08
2023-02-11T04:36:33.737Z,32.03
2023-02-11T04:37:37.516Z,32.11
2023-02-11T04:38:41.196Z,32.12
2023-02-11T04:39:44.897Z,32.10
2023-02-11T04:40:48.572Z,32.17
2023-02-11T04:41:52.274Z,32.10
2023-02-11T04:42:55.949Z,31.63
2023-02-11T04:43:59.676Z,32.02
2023-02-11T04:45:06.377Z,32.20
2023-02-11T04:46:10.074Z,32.18
2023-02-11T04:47:13.743Z,32.16
2023-02-11T04:48:17.417Z,32.08
2023-02-11T04:49:21.078Z,32.15
2023-02-11T04:50:24.791Z,32.22
2023-02-11T04:51:28.434Z,32.05
2023-02-11T04:52:33.804Z,32.20
2023-02-11T04:53:37.427Z,32.14
2023-02-11T04:54:41.295Z,32.06
2023-02-11T04:55:44.951Z,32.22
2023-02-11T04:56:49.192Z,32.21
2023-02-11T04:57:52.859Z,32.14
2023-02-11T04:58:58.672Z,31.98
2023-02-11T05:00:02.307Z,32.16
2023-02-11T05:01:10.303Z,32.10
2023-02-11T05:02:13.901Z,32.23
2023-02-11T05:03:20.585Z,32.15
2023-02-11T05:04:26.902Z,32.14
2023-02-11T05:05:30.556Z,32.24
2023-02-11T05:06:34.136Z,32.08
2023-02-11T05:07:39.396Z,32.23
2023-02-11T05:08:45.307Z,32.22
2023-02-11T05:09:49.077Z,32.38
2023-02-11T05:10:52.741Z,32.30
2023-02-11T05:11:56.563Z,32.35
2023-02-11T05:13:00.817Z,32.31
2023-02-11T05:14:04.509Z,32.31
2023-02-11T05:15:08.768Z,32.14
2023-02-11T05:16:12.776Z,32.32
2023-02-11T05:17:16.493Z,32.40
2023-02-11T05:18:20.260Z,32.44
2023-02-11T05:19:25.341Z,32.16
2023-02-11T05:20:28.983Z,32.49
2023-02-11T05:21:32.790Z,32.47
2023-02-11T05:22:36.405Z,32.47
2023-02-11T05:23:42.634Z,32.55
2023-02-11T05:24:47.309Z,32.49
2023-02-11T05:25:51.161Z,32.34
2023-02-11T05:26:55.001Z,32.42
2023-02-11T05:28:01.312Z,32.16
2023-02-11T05:29:05.045Z,32.61
2023-02-11T05:30:10.002Z,32.71
2023-02-11T05:31:13.826Z,32.75
2023-02-11T05:32:17.488Z,32.54
2023-02-11T05:33:21.136Z,32.45
2023-02-11T05:34:24.761Z,32.45
2023-02-11T05:35:28.463Z,32.44
2023-02-11T05:36:33.469Z,32.35
2023-02-11T05:37:37.327Z,32.49
2023-02-11T05:38:42.763Z,32.49
2023-02-11T05:39:50.874Z,32.40
2023-02-11T05:40:54.882Z,32.54
2023-02-11T05:41:58.680Z,32.45
2023-02-11T05:43:02.289Z,32.38
2023-02-11T05:44:06.051Z,32.42
2023-02-11T05:45:10.409Z,32.50
2023-02-11T05:46:14.115Z,32.56
2023-02-11T05:47:19.181Z,32.58
2023-02-11T05:48:23.777Z,32.62
2023-02-11T05:49:27.540Z,32.61
2023-02-11T05:50:31.256Z,32.45
2023-02-11T05:51:34.826Z,32.59
2023-02-11T05:52:38.493Z,32.62
2023-02-11T05:53:44.091Z,32.56
2023-02-11T05:54:47.779Z,32.47
2023-02-11T05:55:51.656Z,32.56
2023-02-11T05:56:55.488Z,32.50
2023-02-11T05:57:59.242Z,32.64
2023-02-11T05:59:02.974Z,32.57
2023-02-11T06:00:07.833Z,32.68
2023-02-11T06:01:11.473Z,32.76
2023-02-11T06:02:15.189Z,32.57
2023-02-11T06:03:21.806Z,32.51
2023-02-11T06:04:25.476Z,32.58
2023-02-11T06:05:29.294Z,32.55
2023-02-11T06:06:33.097Z,32.53
2023-02-11T06:07:36.795Z,32.54
2023-02-11T06:08:40.903Z,32.53
2023-02-11T06:09:46.521Z,32.51
2023-02-11T06:10:50.315Z,32.34
2023-02-11T06:11:54.284Z,32.55
2023-02-11T06:13:00.230Z,32.51
2023-02-11T06:14:04.224Z,32.46
2023-02-11T06:15:08.567Z,32.52
2023-02-11T06:16:12.274Z,32.41
2023-02-11T06:17:15.937Z,32.54
2023-02-11T06:18:19.725Z,32.61
2023-02-11T06:19:23.349Z,32.68
2023-02-11T06:20:27.212Z,32.70
2023-02-11T06:21:42.837Z,32.67
2023-02-11T06:22:47.457Z,32.57
2023-02-11T06:23:51.126Z,32.67
2023-02-11T06:25:01.602Z,32.41
2023-02-11T06:26:06.635Z,32.71
2023-02-11T06:27:10.315Z,32.60
2023-02-11T06:28:14.087Z,32.63
2023-02-11T06:29:17.881Z,32.52
2023-02-11T06:30:21.585Z,32.63
2023-02-11T06:31:25.364Z,32.64
2023-02-11T06:32:43.374Z,32.61
2023-02-11T06:33:48.488Z,32.64
2023-02-11T06:34:52.105Z,32.67
2023-02-11T06:35:55.825Z,32.75
2023-02-11T06:36:59.504Z,32.75
2023-02-11T06:38:03.455Z,32.71
2023-02-11T06:39:07.198Z,32.64
2023-02-11T06:40:13.687Z,32.79
2023-02-11T06:41:19.005Z,32.77
2023-02-11T06:42:22.712Z,32.86
2023-02-11T06:43:26.388Z,32.91
2023-02-11T06:44:30.057Z,32.87
2023-02-11T06:45:33.725Z,32.87
2023-02-11T06:46:37.336Z,32.89
2023-02-11T06:47:41.781Z,32.71
2023-02-11T06:48:45.445Z,32.72
2023-02-11T06:49:51.700Z,32.78
2023-02-11T06:50:58.109Z,32.79
2023-02-11T06:52:01.769Z,32.89
2023-02-11T06:53:05.459Z,32.88
2023-02-11T06:54:11.673Z,32.72
2023-02-11T06:55:17.045Z,32.77
2023-02-11T06:56:22.458Z,32.82
2023-02-11T06:57:26.262Z,32.72
2023-02-11T06:58:29.894Z,32.70
2023-02-11T06:59:33.546Z,32.65
2023-02-11T07:00:38.042Z,32.62
2023-02-11T07:01:41.659Z,32.66
2023-02-11T07:02:45.429Z,32.69
2023-02-11T07:03:49.149Z,32.70
2023-02-11T07:04:52.957Z,32.76
2023-02-11T07:05:56.569Z,32.81
2023-02-11T07:07:00.233Z,32.83
2023-02-11T07:08:03.870Z,32.84
2023-02-11T07:09:07.573Z,32.87
2023-02-11T07:10:11.297Z,32.67
2023-02-11T07:11:18.286Z,32.83
2023-02-11T07:12:21.976Z,32.70
2023-02-11T07:13:25.739Z,32.80
2023-02-11T07:14:29.397Z,32.70
2023-02-11T07:15:33.165Z,32.62
2023-02-11T07:16:37.427Z,32.46
2023-02-11T07:17:41.281Z,32.79
2023-02-11T07:18:45.139Z,32.52
2023-02-11T07:19:48.778Z,32.79
2023-02-11T07:20:52.454Z,32.86
2023-02-11T07:21:56.099Z,32.85
2023-02-11T07:22:59.801Z,32.77
2023-02-11T07:24:08.884Z,32.82
2023-02-11T07:25:14.294Z,32.83
2023-02-11T07:26:21.358Z,32.59
2023-02-11T07:27:24.968Z,32.89
2023-02-11T07:28:28.653Z,32.90
2023-02-11T07:29:32.429Z,32.93
2023-02-11T07:30:36.061Z,32.89
2023-02-11T07:31:40.034Z,32.94
2023-02-11T07:32:43.742Z,32.88
2023-02-11T07:33:47.781Z,32.97
2023-02-11T07:34:51.545Z,32.95
2023-02-11T07:35:55.274Z,32.82
2023-02-11T07:36:58.871Z,32.69
2023-02-11T07:38:02.488Z,32.83
2023-02-11T07:39:06.165Z,32.77
2023-02-11T07:40:10.913Z,32.82
2023-02-11T07:41:15.950Z,32.89
2023-02-11T07:42:21.354Z,32.82
2023-02-11T07:43:24.943Z,32.71
2023-02-11T07:44:28.617Z,32.84
2023-02-11T07:45:32.306Z,32.56
2023-02-11T07:46:36.048Z,32.79
2023-02-11T07:47:39.649Z,32.78
2023-02-11T07:48:43.280Z,32.66
2023-02-11T07:49:47.177Z,32.85
2023-02-11T07:50:51.103Z,32.81
2023-02-11T07:51:54.684Z,32.90
2023-02-11T07:52:58.297Z,32.90
2023-02-11T07:54:02.355Z,32.83
2023-02-11T07:55:06.515Z,32.91
2023-02-11T07:56:11.552Z,32.70
2023-02-11T07:57:15.254Z,32.54
2023-02-11T07:58:20.445Z,32.57
2023-02-11T07:59:26.807Z,32.74
2023-02-11T08:00:33.227Z,32.75
2023-02-11T08:01:36.928Z,32.72
2023-02-11T08:02:40.632Z,32.70
2023-02-11T08:03:44.330Z,32.56
2023-02-11T08:04:48.134Z,32.62
2023-02-11T08:05:51.992Z,32.66
2023-02-11T08:06:57.901Z,32.70
2023-02-11T08:08:04.135Z,32.72
2023-02-11T08:09:12.226Z,32.72
2023-02-11T08:10:19.105Z,32.84
2023-02-11T08:11:27.067Z,32.83
2023-02-11T08:12:31.133Z,32.98
2023-02-11T08:13:37.369Z,33.01
2023-02-11T08:14:41.035Z,33.01
2023-02-11T08:15:44.725Z,32.81
2023-02-11T08:16:48.418Z,32.95
2023-02-11T08:17:52.059Z,32.92
2023-02-11T08:18:58.196Z,32.72
2023-02-11T08:20:01.833Z,32.93
2023-02-11T08:21:06.811Z,32.92
2023-02-11T08:22:10.434Z,32.89
2023-02-11T08:23:14.054Z,32.84
2023-02-11T08:24:17.775Z,32.84
2023-02-11T08:25:21.380Z,32.81
2023-02-11T08:26:26.947Z,32.58
2023-02-11T08:27:30.552Z,32.71
2023-02-11T08:28:38.854Z,32.67
2023-02-11T08:29:42.479Z,32.71
2023-02-11T08:30:46.185Z,32.68
2023-02-11T08:31:52.436Z,32.69
2023-02-11T08:32:56.101Z,32.70
2023-02-11T08:33:59.714Z,32.62
2023-02-11T08:35:03.693Z,32.66
2023-02-11T08:36:10.068Z,32.68
2023-02-11T08:37:13.679Z,32.66
2023-02-11T08:38:17.328Z,32.64
2023-02-11T08:39:23.117Z,32.66
2023-02-11T08:40:28.325Z,32.28
2023-02-11T08:41:32.038Z,32.65
2023-02-11T08:42:35.741Z,32.67
2023-02-11T08:43:41.440Z,32.65
2023-02-11T08:44:53.570Z,32.56
2023-02-11T08:45:57.613Z,32.52
2023-02-11T08:47:02.245Z,32.42
2023-02-11T08:48:06.035Z,32.37
2023-02-11T08:49:10.351Z,32.37
2023-02-11T08:50:14.113Z,32.41
2023-02-11T08:51:19.054Z,32.48
2023-02-11T08:52:22.634Z,32.51
2023-02-11T08:53:28.242Z,32.33
2023-02-11T08:54:32.619Z,32.38
2023-02-11T08:55:36.946Z,32.15
2023-02-11T08:56:46.109Z,32.51
2023-02-11T08:57:49.833Z,32.48
2023-02-11T08:58:55.380Z,32.42
2023-02-11T09:00:04.107Z,32.47
2023-02-11T09:01:11.702Z,32.41
2023-02-11T09:02:15.577Z,32.38
2023-02-11T09:03:19.552Z,32.41
2023-02-11T09:04:25.200Z,32.37
2023-02-11T09:05:28.903Z,32.31
2023-02-11T09:06:32.873Z,32.30
2023-02-11T09:07:36.484Z,32.42
2023-02-11T09:08:46.368Z,32.43
2023-02-11T09:09:58.883Z,32.04
2023-02-11T09:11:02.827Z,32.36
2023-02-11T09:12:07.144Z,32.25
2023-02-11T09:13:10.860Z,32.24
2023-02-11T09:14:20.603Z,32.32
2023-02-11T09:15:26.808Z,32.28
2023-02-11T09:16:34.779Z,32.27
2023-02-11T09:17:41.009Z,32.22
2023-02-11T09:18:44.624Z,32.28
2023-02-11T09:19:48.325Z,32.35
2023-02-11T09:20:52.263Z,32.35
2023-02-11T09:21:56.039Z,32.38
2023-02-11T09:23:00.560Z,32.39
2023-02-11T09:24:04.374Z,32.41
2023-02-11T09:25:08.482Z,32.39
2023-02-11T09:26:15.244Z,32.35
2023-02-11T09:27:18.918Z,32.37
2023-02-11T09:28:22.640Z,32.37
2023-02-11T09:29:27.936Z,32.41
2023-02-11T09:30:31.747Z,32.44
2023-02-11T09:31:36.073Z,32.28
2023-02-11T09:32:39.934Z,32.45
2023-02-11T09:33:45.373Z,32.19
2023-02-11T09:34:49.155Z,32.45
2023-02-11T09:35:52.747Z,32.34
2023-02-11T09:36:56.391Z,32.24
2023-02-11T09:37:59.978Z,32.41
2023-02-11T09:39:05.483Z,32.24
2023-02-11T09:40:10.032Z,32.19
2023-02-11T09:41:36.376Z,32.14
2023-02-11T09:42:46.356Z,32.22
2023-02-11T09:43:52.808Z,32.24
2023-02-11T09:44:58.818Z,31.97
2023-02-11T09:46:02.691Z,32.24
2023-02-11T09:47:11.541Z,32.20
2023-02-11T09:48:18.093Z,32.23
2023-02-11T09:49:25.558Z,32.22
2023-02-11T09:50:33.525Z,32.22
2023-02-11T09:51:44.861Z,32.03
2023-02-11T09:52:54.951Z,32.03
2023-02-11T09:54:05.630Z,32.03
2023-02-11T09:55:19.736Z,32.01
2023-02-11T09:56:30.521Z,32.09
2023-02-11T09:57:36.454Z,32.11
2023-02-11T09:58:42.704Z,31.96
2023-02-11T09:59:46.355Z,31.98
2023-02-11T10:01:01.228Z,31.99
2023-02-11T10:02:12.761Z,31.98
2023-02-11T10:03:48.006Z,31.94
2023-02-11T10:05:12.941Z,31.89
2023-02-11T10:06:31.398Z,31.91
2023-02-11T10:07:42.903Z,31.90
2023-02-11T10:08:59.979Z,31.87
2023-02-11T10:10:16.056Z,31.80
2023-02-11T10:11:31.929Z,31.72
2023-02-11T10:13:02.836Z,31.72
2023-02-11T10:14:20.396Z,31.66
2023-02-11T10:15:36.003Z,31.66
2023-02-11T10:16:55.894Z,31.56
2023-02-11T10:18:26.638Z,31.51
2023-02-11T10:19:46.992Z,31.44
2023-02-11T10:21:02.403Z,31.40
2023-02-11T10:22:12.958Z,31.34
2023-02-11T10:23:20.833Z,31.32
2023-02-11T10:24:25.287Z,31.30
2023-02-11T10:25:32.324Z,31.25
2023-02-11T10:26:38.059Z,31.27
2023-02-11T10:27:43.362Z,31.25
2023-02-11T10:28:50.403Z,31.22
2023-02-11T10:29:58.051Z,31.14
2023-02-11T10:31:04.326Z,31.20
2023-02-11T10:32:27.657Z,31.10
2023-02-11T10:33:36.810Z,31.17
2023-02-11T10:34:42.660Z,30.81
2023-02-11T10:35:46.421Z,31.03
2023-02-11T10:36:50.138Z,31.01
2023-02-11T10:37:54.113Z,30.98
2023-02-11T10:38:59.130Z,31.03
2023-02-11T10:40:02.755Z,31.05
2023-02-11T10:41:07.139Z,30.96
2023-02-11T10:42:16.063Z,31.04
2023-02-11T10:43:24.559Z,30.98
2023-02-11T10:44:32.634Z,30.94
2023-02-11T10:45:39.262Z,30.89
2023-02-11T10:46:43.754Z,30.85
2023-02-11T10:47:49.048Z,30.79
2023-02-11T10:48:53.946Z,30.48
2023-02-11T10:49:57.607Z,30.65
2023-02-11T10:51:09.997Z,30.48
2023-02-11T10:52:21.074Z,30.74
2023-02-11T10:53:24.791Z,30.68
2023-02-11T10:54:28.447Z,30.65
2023-02-11T10:55:32.100Z,30.53
2023-02-11T10:56:38.392Z,30.68
2023-02-11T10:57:44.299Z,30.67
2023-02-11T10:58:56.582Z,30.63
2023-02-11T11:00:03.209Z,30.55
2023-02-11T11:01:23.418Z,30.57
2023-02-11T11:02:31.864Z,30.56
2023-02-11T11:03:40.475Z,30.55
2023-02-11T11:04:45.673Z,30.57
2023-02-11T11:05:51.305Z,30.53
2023-02-11T11:06:55.033Z,30.56
2023-02-11T11:08:00.897Z,30.52
2023-02-11T11:09:04.698Z,30.47
2023-02-11T11:10:26.963Z,30.46
2023-02-11T11:11:30.759Z,30.46
2023-02-11T11:12:39.632Z,30.37
2023-02-11T11:13:56.772Z,30.40
2023-02-11T11:15:02.034Z,30.40
2023-02-11T11:16:22.839Z,30.35
2023-02-11T11:17:27.586Z,30.22
2023-02-11T11:18:31.251Z,30.35
2023-02-11T11:19:36.587Z,30.29
2023-02-11T11:20:44.630Z,30.23
2023-02-11T11:21:51.176Z,30.33
2023-02-11T11:23:09.080Z,30.26
2023-02-11T11:24:19.219Z,30.29
2023-02-11T11:25:28.649Z,30.11
2023-02-11T11:26:43.283Z,30.09
2023-02-11T11:27:50.481Z,30.23
2023-02-11T11:29:00.811Z,30.23
2023-02-11T11:30:04.688Z,30.19
2023-02-11T11:31:16.753Z,29.87
2023-02-11T11:32:23.894Z,30.11
2023-02-11T11:33:30.686Z,30.05
2023-02-11T11:34:40.804Z,30.02
2023-02-11T11:35:45.055Z,29.98
2023-02-11T11:36:51.446Z,29.96
2023-02-11T11:38:01.670Z,29.76
2023-02-11T11:39:19.522Z,29.83
2023-02-11T11:40:25.711Z,29.80
2023-02-11T11:41:31.485Z,29.47
2023-02-11T11:42:36.389Z,29.76
2023-02-11T11:43:39.997Z,29.77
2023-02-11T11:44:56.498Z,29.76
2023-02-11T11:46:01.481Z,29.81
2023-02-11T11:47:23.422Z,29.80
2023-02-11T11:48:30.611Z,29.52
2023-02-11T11:49:42.547Z,29.77
2023-02-11T11:50:50.110Z,29.73
2023-02-11T11:52:03.070Z,29.66
2023-02-11T11:53:13.255Z,29.39
2023-02-11T11:54:21.164Z,29.67
2023-02-11T11:55:28.162Z,29.62
2023-02-11T11:56:35.091Z,29.70
2023-02-11T11:57:39.995Z,29.40
2023-02-11T11:58:44.104Z,29.70
2023-02-11T11:59:47.803Z,29.58
2023-02-11T12:01:02.949Z,29.63
2023-02-11T12:02:32.263Z,29.53
2023-02-11T12:04:17.616Z,29.25
2023-02-11T12:05:28.458Z,29.40
2023-02-11T12:06:42.014Z,29.43
2023-02-11T12:07:58.809Z,29.41
2023-02-11T12:09:12.358Z,29.40
2023-02-11T12:10:40.906Z,29.32
2023-02-11T12:12:02.427Z,29.18
2023-02-11T12:13:18.608Z,29.32
2023-02-11T12:14:34.286Z,29.30
2023-02-11T12:15:48.323Z,29.30
2023-02-11T12:16:58.704Z,29.29
2023-02-11T12:18:16.666Z,29.26
2023-02-11T12:19:44.666Z,29.21
2023-02-11T12:21:09.626Z,29.19
2023-02-11T12:22:19.900Z,29.19
2023-02-11T12:23:53.061Z,29.11
2023-02-11T12:25:20.988Z,29.32
2023-02-11T12:26:50.448Z,29.30
2023-02-11T12:28:08.439Z,29.25
2023-02-11T12:29:21.294Z,29.35
2023-02-11T12:30:40.850Z,29.38
2023-02-11T12:32:06.056Z,29.39
2023-02-11T12:33:16.958Z,29.37
2023-02-11T12:34:53.506Z,29.39
2023-02-11T12:36:03.318Z,29.26
2023-02-11T12:37:19.193Z,29.27
2023-02-11T12:38:38.942Z,29.28
2023-02-11T12:39:47.925Z,29.32
2023-02-11T12:41:02.400Z,29.24
2023-02-11T12:42:25.054Z,29.14
2023-02-11T12:43:36.747Z,29.28
2023-02-11T12:44:53.243Z,29.27
2023-02-11T12:46:16.738Z,29.29
2023-02-11T12:47:28.795Z,29.27
2023-02-11T12:48:47.327Z,29.11
2023-02-11T12:50:08.675Z,29.15
2023-02-11T12:51:21.713Z,29.14
2023-02-11T12:52:41.035Z,29.14
2023-02-11T12:54:13.894Z,29.10
2023-02-11T12:55:24.092Z,29.04
2023-02-11T12:56:32.872Z,29.02
2023-02-11T12:57:41.260Z,29.02
2023-02-11T12:58:48.429Z,29.01
2023-02-11T12:59:58.089Z,28.97
2023-02-11T13:01:05.596Z,28.88
2023-02-11T13:02:22.548Z,28.98
2023-02-11T13:03:30.894Z,29.01
2023-02-11T13:04:39.562Z,28.96
2023-02-11T13:05:48.627Z,28.89
2023-02-11T13:06:57.356Z,28.97
2023-02-11T13:08:06.701Z,28.90
2023-02-11T13:09:17.679Z,28.93
2023-02-11T13:10:29.687Z,28.88
2023-02-11T13:11:39.917Z,28.90
2023-02-11T13:12:47.094Z,28.89
2023-02-11T13:13:56.786Z,28.93
2023-02-11T13:15:06.250Z,28.91
2023-02-11T13:16:21.623Z,28.95
2023-02-11T13:17:31.587Z,28.70
2023-02-11T13:18:48.042Z,28.85
2023-02-11T13:19:55.517Z,28.80
2023-02-11T13:21:15.292Z,28.98
2023-02-11T13:22:25.044Z,28.87
2023-02-11T13:23:36.033Z,28.70
2023-02-11T13:24:44.614Z,28.90
2023-02-11T13:25:58.046Z,28.89
2023-02-11T13:27:10.961Z,28.83
2023-02-11T13:28:27.113Z,28.90
2023-02-11T13:29:45.063Z,28.72
2023-02-11T13:30:49.693Z,28.85
2023-02-11T13:31:57.152Z,28.86
2023-02-11T13:33:22.137Z,28.83
2023-02-11T13:34:27.657Z,28.85
2023-02-11T13:35:33.010Z,28.87
2023-02-11T13:36:36.715Z,28.86
2023-02-11T13:37:48.404Z,28.87
2023-02-11T13:39:03.576Z,28.73
2023-02-11T13:40:21.369Z,28.83
2023-02-11T13:41:30.375Z,28.83
2023-02-11T13:42:46.136Z,28.82
2023-02-11T13:44:03.675Z,28.84
2023-02-11T13:45:19.547Z,28.84
2023-02-11T13:46:23.298Z,28.72
2023-02-11T13:47:32.286Z,28.57
2023-02-11T13:48:38.721Z,28.71
2023-02-11T13:49:49.941Z,28.56
2023-02-11T13:50:56.440Z,28.63
2023-02-11T13:52:02.412Z,28.72
2023-02-11T13:53:08.781Z,28.68
2023-02-11T13:54:31.952Z,28.71
2023-02-11T13:55:36.131Z,28.76
2023-02-11T13:56:41.842Z,28.79
2023-02-11T13:57:45.433Z,28.75
2023-02-11T13:58:51.089Z,28.83
2023-02-11T13:59:56.744Z,28.80
2023-02-11T14:01:00.506Z,28.75
2023-02-11T14:02:07.184Z,28.68
2023-02-11T14:03:28.752Z,28.74
2023-02-11T14:04:32.482Z,28.70
2023-02-11T14:05:36.182Z,28.65
2023-02-11T14:06:59.781Z,28.65
2023-02-11T14:08:36.872Z,28.65
2023-02-11T14:09:41.916Z,28.65
2023-02-11T14:10:53.220Z,28.65
2023-02-11T14:12:23.464Z,28.66
2023-02-11T14:13:28.040Z,28.68
2023-02-11T14:14:33.504Z,28.66
2023-02-11T14:15:41.246Z,28.67
2023-02-11T14:17:23.482Z,28.72
2023-02-11T14:18:58.335Z,28.70
2023-02-11T14:20:04.585Z,28.61
2023-02-11T14:21:14.771Z,28.62
2023-02-11T14:22:23.110Z,28.32
2023-02-11T14:23:27.715Z,28.61
2023-02-11T14:25:00.979Z,28.55
2023-02-11T14:26:34.191Z,28.48
2023-02-11T14:27:43.409Z,28.59
2023-02-11T14:28:49.024Z,28.61
2023-02-11T14:30:12.954Z,28.62
2023-02-11T14:31:22.040Z,28.61
2023-02-11T14:32:42.410Z,28.43
2023-02-11T14:33:59.312Z,28.65